Forside
METAR-TAF:

METAR-TAF

Lufthavne :

Bahrain, Bahrain

Breddekreds: 26-16N, længdekreds: 050-39E, højde: 2 m

Aktuelle vejr

Denne rapport blev lavet for 14 minutter siden, kl. 17:00 UTC
Vind 2 kt fra varierende retninger
Temperatur 32°C
Fugtighed 71%
Tryk 999 hPa
Sigt: 9000 m
skyfri

METAR: OBBI 251700Z VRB02KT 9000 SKC 32/26 Q0999 NOSIG

Tid: 20:14 (17:14 UTC)

Vejrudsigter

Denne rapport blev lavet for 6 timer og 14 minutter siden, kl. 11:00 UTC
Foreløbig gælder fra 25 på 12 UTC til 26 på 18 UTC
Vind 12 kt fra nordvest
Sigt 10 km eller mere
ingen skyer under 1500m og ingen cumulonimbus
ændring
fra 25 på 16 UTC til 25 på 18 UTC
Vind 5 kt fra varierende retninger
ændring
fra 26 på 04 UTC til 26 på 06 UTC
Vind 12 kt fra nordvest

TAF: OBBI 251100Z 2512/2618 31012KT CAVOK BECMG 2516/2518 VRB05KT BECMG 2604/2606 32012KT

Vejrobservationer og prognoser fra mere end 4000 lufthavne (METAR og TAF).

De gule og røde prikker repræsenterer de meteorologiske stationer.

Flyt musen over at se navnet på stationen.

Så klik over at se vejr observationer og prognoser.

At skifte det kort: Klik på de grønne knapper med et sort kors for at zoome ind; på den grønne knap med en bindestreg for at zoome ud; eller på de grønne pile for tilstødende kort.


METAR-TAF: